Time;durP1;ratioP1;P1;durP2;ratioP2;P2;SDS_P1;SDS_P2;PMS_P1;PMS_P2;Temp;Humidity;BMP_temperature;BMP_pressure;BME280_temperature;BME280_humidity;BME280_pressure;Samples;Min_cycle;Max_cycle;Signal;HPM_P1;HPM_P2
2021/01/12 00:01:10;;;;;;;53.43;25.93;;;;;;;20.28;100.00;1689626.00;121085;1144;104373;-74
2021/01/12 00:03:39;;;;;;;44.43;19.80;;;;;;;20.27;100.00;1689647.37;121033;1144;104460;-73
2021/01/12 00:06:18;;;;;;;56.73;26.83;;;;;;;20.26;100.00;1689875.00;121153;1143;104348;-74
2021/01/12 00:08:47;;;;;;;47.07;20.63;;;;;;;20.25;100.00;1689918.37;121084;1144;104453;-73
2021/01/12 00:11:22;;;;;;;46.27;20.83;;;;;;;20.24;100.00;1690037.88;121113;1144;104351;-73
2021/01/12 00:13:51;;;;;;;56.67;28.10;;;;;;;20.23;100.00;1690199.87;121130;1144;104343;-73
2021/01/12 00:16:33;;;;;;;63.73;28.30;;;;;;;20.22;100.00;1690263.62;121113;1144;104357;-73
2021/01/12 00:19:02;;;;;;;60.67;27.93;;;;;;;20.22;100.00;1690344.75;121102;1144;104407;-72
2021/01/12 00:21:31;;;;;;;54.87;24.77;;;;;;;20.23;100.00;1690241.37;121119;1144;104355;-73
2021/01/12 00:24:00;;;;;;;62.13;29.67;;;;;;;20.23;100.00;1690116.25;121036;1144;104377;-73
2021/01/12 00:26:29;;;;;;;62.60;30.43;;;;;;;20.23;100.00;1690241.37;121119;1144;104351;-73
2021/01/12 00:28:58;;;;;;;66.20;31.23;;;;;;;20.23;100.00;1690075.75;121118;1144;104348;-73
2021/01/12 00:31:44;;;;;;;58.23;27.37;;;;;;;20.25;100.00;1689923.12;121168;1144;104367;-73
2021/01/12 00:34:14;;;;;;;59.97;27.70;;;;;;;20.26;100.00;1689760.75;121133;1144;104686;-72
2021/01/12 00:36:50;;;;;;;57.60;27.73;;;;;;;20.25;100.00;1689822.62;121092;1144;104348;-72
2021/01/12 00:39:45;;;;;;;63.57;29.30;;;;;;;20.24;100.00;1689900.50;121116;1144;105128;-73
2021/01/12 00:42:19;;;;;;;56.33;24.67;;;;;;;20.24;100.00;1689776.87;121138;1144;104448;-73
2021/01/12 00:44:53;;;;;;;58.07;27.43;;;;;;;20.25;100.00;1689640.00;121096;1144;104348;-73
2021/01/12 00:47:29;;;;;;;61.80;28.85;;;;;;;20.25;100.00;1689580.50;121114;1144;104396;-75
2021/01/12 00:50:06;;;;;;;61.27;29.13;;;;;;;20.24;100.00;1689588.00;121113;1144;104417;-72
2021/01/12 00:52:38;;;;;;;61.80;26.87;;;;;;;20.24;100.00;1689548.37;121107;1144;104471;-72
2021/01/12 00:55:08;;;;;;;68.83;31.07;;;;;;;20.25;100.00;1689624.88;121140;1144;104353;-73
2021/01/12 00:57:39;;;;;;;60.60;27.20;;;;;;;20.25;100.00;1689583.25;121135;1144;104470;-72
2021/01/12 01:00:10;;;;;;;58.80;26.53;;;;;;;20.24;100.00;1689606.87;121038;1144;104492;-74
2021/01/12 01:02:38;;;;;;;61.07;27.47;;;;;;;20.24;100.00;1689481.75;121282;1144;104354;-73
2021/01/12 01:05:09;;;;;;;61.00;28.03;;;;;;;20.23;100.00;1689644.62;121103;1144;104309;-73
2021/01/12 01:07:38;;;;;;;63.03;28.10;;;;;;;20.23;100.00;1689794.75;121130;1144;104348;-72
2021/01/12 01:10:18;;;;;;;66.23;28.97;;;;;;;20.22;100.00;1689736.25;121105;1144;104367;-72
2021/01/12 01:12:51;;;;;;;64.60;29.10;;;;;;;20.23;100.00;1689545.62;121029;1144;104464;-73
2021/01/12 01:15:25;;;;;;;65.10;29.37;;;;;;;20.23;100.00;1689426.13;121005;1144;104425;-73
2021/01/12 01:17:54;;;;;;;66.10;30.97;;;;;;;20.24;100.00;1689205.62;121076;1144;104900;-73
2021/01/12 01:20:25;;;;;;;64.63;29.00;;;;;;;20.25;100.00;1688875.62;121117;1144;104821;-73
2021/01/12 01:23:03;;;;;;;65.70;28.80;;;;;;;20.26;100.00;1688782.12;121083;1144;104384;-73
2021/01/12 01:25:32;;;;;;;59.57;27.83;;;;;;;20.26;100.00;1688611.25;121127;1144;104352;-72
2021/01/12 01:28:13;;;;;;;64.80;29.30;;;;;;;20.26;100.00;1688426.25;121083;1144;104455;-72
2021/01/12 01:30:46;;;;;;;70.83;31.30;;;;;;;20.26;100.00;1688393.25;121063;1144;104575;-74
2021/01/12 01:33:18;;;;;;;65.63;28.80;;;;;;;20.26;100.00;1688241.75;121118;1144;104344;-73
2021/01/12 01:35:48;;;;;;;64.57;30.23;;;;;;;20.27;100.00;1688033.00;121094;1144;104367;-74
2021/01/12 01:38:17;;;;;;;65.23;29.17;;;;;;;20.26;100.00;1688050.63;121172;1144;104495;-73
2021/01/12 01:40:46;;;;;;;65.43;30.00;;;;;;;20.25;100.00;1688206.37;121177;1144;104538;-74
2021/01/12 01:43:22;;;;;;;56.07;25.57;;;;;;;20.25;100.00;1688142.12;121200;1144;104350;-73
2021/01/12 01:45:52;;;;;;;62.93;26.70;;;;;;;20.26;100.00;1687968.00;121118;1144;104462;-73
2021/01/12 01:48:21;;;;;;;66.30;29.87;;;;;;;20.25;100.00;1687957.62;121188;1144;104449;-73
2021/01/12 01:50:51;;;;;;;68.97;29.03;;;;;;;20.25;100.00;1688152.62;121122;1144;104368;-73
2021/01/12 01:53:21;;;;;;;62.53;29.67;;;;;;;20.25;100.00;1688139.37;121113;1144;104446;-73
2021/01/12 01:55:58;;;;;;;62.83;27.93;;;;;;;20.24;100.00;1688206.37;121137;1144;104645;-73
2021/01/12 01:58:27;;;;;;;64.57;27.77;;;;;;;20.24;100.00;1688312.62;121131;1144;104448;-73
2021/01/12 02:00:56;;;;;;;58.20;25.80;;;;;;;20.25;100.00;1688240.87;121100;1144;104471;-73
2021/01/12 02:03:30;;;;;;;67.17;31.87;;;;;;;20.25;100.00;1688292.25;121121;1144;104436;-73
2021/01/12 02:06:05;;;;;;;68.83;30.50;;;;;;;20.26;100.00;1688172.37;121100;1144;104493;-74
2021/01/12 02:08:43;;;;;;;71.00;30.87;;;;;;;20.26;100.00;1688035.50;121160;1144;104385;-73
2021/01/12 02:11:15;;;;;;;66.07;29.93;;;;;;;20.27;100.00;1687987.25;121143;1144;104351;-73
2021/01/12 02:13:45;;;;;;;50.27;21.77;;;;;;;20.28;100.00;1687786.62;121163;1144;104476;-73
2021/01/12 02:16:15;;;;;;;62.10;26.63;;;;;;;20.28;100.00;1687660.62;121143;1144;104626;-73
2021/01/12 02:18:44;;;;;;;65.70;29.73;;;;;;;20.27;100.00;1687802.25;121059;1144;104914;-73
2021/01/12 02:21:13;;;;;;;61.60;27.60;;;;;;;20.27;100.00;1687807.87;121136;1144;104370;-74
2021/01/12 02:23:51;;;;;;;62.50;28.37;;;;;;;20.26;100.00;1687698.00;121137;1144;104484;-74
2021/01/12 02:26:24;;;;;;;68.65;29.25;;;;;;;20.25;100.00;1687802.75;121146;1144;104446;-73
2021/01/12 02:28:53;;;;;;;63.20;28.63;;;;;;;20.25;100.00;1687652.25;121152;1144;104442;-74
2021/01/12 02:31:22;;;;;;;64.20;28.43;;;;;;;20.25;100.00;1687507.87;121114;1144;104358;-72
2021/01/12 02:33:53;;;;;;;60.10;27.67;;;;;;;20.25;100.00;1687538.50;121150;1144;104345;-74
2021/01/12 02:36:23;;;;;;;61.03;27.33;;;;;;;20.25;100.00;1687752.37;121137;1144;104351;-74
2021/01/12 02:38:52;;;;;;;58.83;26.70;;;;;;;20.25;100.00;1687775.00;121128;1144;104353;-72
2021/01/12 02:41:30;;;;;;;61.77;27.40;;;;;;;20.25;100.00;1687711.75;121109;1144;104399;-72
2021/01/12 02:43:59;;;;;;;58.47;26.90;;;;;;;20.25;100.00;1687743.88;121157;1144;104352;-73
2021/01/12 02:46:29;;;;;;;58.40;28.27;;;;;;;20.24;100.00;1687698.12;121157;1144;104489;-73
2021/01/12 02:48:59;;;;;;;59.67;28.10;;;;;;;20.25;100.00;1687624.87;121143;1144;104351;-72
2021/01/12 02:51:28;;;;;;;61.67;28.07;;;;;;;20.26;100.00;1687300.63;121101;1144;104380;-73
2021/01/12 02:53:57;;;;;;;62.20;28.27;;;;;;;20.26;100.00;1687142.50;121265;1144;105032;-73
2021/01/12 02:56:26;;;;;;;60.30;28.07;;;;;;;20.26;100.00;1687078.87;121092;1144;104352;-73
2021/01/12 02:58:55;;;;;;;59.13;25.37;;;;;;;20.26;100.00;1687046.25;121125;1144;104374;-72
2021/01/12 03:01:24;;;;;;;58.27;27.47;;;;;;;20.27;100.00;1686970.25;121058;1144;104343;-74
2021/01/12 03:03:53;;;;;;;61.43;26.63;;;;;;;20.26;100.00;1687142.50;121060;1144;104808;-73
2021/01/12 03:06:30;;;;;;;62.17;28.63;;;;;;;20.26;100.00;1687168.87;121112;1144;104451;-74
2021/01/12 03:09:00;;;;;;;60.33;26.93;;;;;;;20.26;100.00;1687237.37;121115;1144;104387;-73
2021/01/12 03:11:29;;;;;;;60.57;27.70;;;;;;;20.25;100.00;1687153.00;121123;1144;104430;-74
2021/01/12 03:13:58;;;;;;;61.60;28.27;;;;;;;20.24;100.00;1687279.87;121185;1144;104476;-74
2021/01/12 03:16:27;;;;;;;65.07;28.37;;;;;;;20.23;100.00;1687425.25;121153;1144;104407;-74
2021/01/12 03:18:56;;;;;;;63.77;29.13;;;;;;;20.22;100.00;1687587.62;121111;1144;104793;-73
2021/01/12 03:21:25;;;;;;;59.53;25.67;;;;;;;20.22;100.00;1687667.87;121137;1144;104410;-73
2021/01/12 03:23:56;;;;;;;57.80;25.13;;;;;;;20.23;100.00;1687582.50;121108;1144;104377;-76
2021/01/12 03:26:27;;;;;;;61.10;26.17;;;;;;;20.23;100.00;1687562.12;121155;1144;104378;-73
2021/01/12 03:28:56;;;;;;;63.47;27.83;;;;;;;20.22;100.00;1687696.62;121124;1144;104472;-73
2021/01/12 03:31:25;;;;;;;68.70;29.43;;;;;;;20.22;100.00;1687675.37;121111;1144;104396;-73
2021/01/12 03:33:55;;;;;;;64.23;28.00;;;;;;;20.22;100.00;1687640.00;121085;1144;104572;-73
2021/01/12 03:36:24;;;;;;;64.23;28.30;;;;;;;20.21;100.00;1687695.62;121024;1144;104352;-74
2021/01/12 03:38:53;;;;;;;68.23;29.73;;;;;;;20.21;100.00;1687742.37;121145;1144;104386;-73
2021/01/12 03:41:22;;;;;;;65.83;30.13;;;;;;;20.21;100.00;1687686.75;121138;1144;104343;-73
2021/01/12 03:43:53;;;;;;;66.50;29.93;;;;;;;20.22;100.00;1687420.12;121091;1144;104539;-73
2021/01/12 03:46:22;;;;;;;66.77;29.47;;;;;;;20.22;100.00;1687373.37;121093;1144;104387;-73
2021/01/12 03:48:51;;;;;;;66.83;29.77;;;;;;;20.22;100.00;1687245.00;121111;1144;104486;-73
2021/01/12 03:51:23;;;;;;;56.63;24.90;;;;;;;20.22;100.00;1687351.63;121075;1144;104585;-74
2021/01/12 03:53:52;;;;;;;67.07;29.93;;;;;;;20.22;100.00;1687300.25;121124;1144;104355;-74
2021/01/12 03:56:22;;;;;;;63.43;28.40;;;;;;;20.21;100.00;1687587.12;121167;1144;104493;-74
2021/01/12 03:58:54;;;;;;;67.63;30.30;;;;;;;20.22;100.00;1687407.37;121088;1144;104371;-72
2021/01/12 04:01:23;;;;;;;61.80;26.70;;;;;;;20.23;100.00;1687084.12;121071;1144;104348;-75
2021/01/12 04:03:52;;;;;;;68.40;29.13;;;;;;;20.23;100.00;1686999.12;121095;1144;104354;-73
2021/01/12 04:06:22;;;;;;;67.07;29.03;;;;;;;20.23;100.00;1687026.50;121113;1144;104349;-73
2021/01/12 04:08:54;;;;;;;71.43;32.00;;;;;;;20.23;100.00;1686930.25;121178;1144;104521;-74
2021/01/12 04:11:24;;;;;;;71.00;32.03;;;;;;;20.23;100.00;1686871.75;121187;1144;104358;-74
2021/01/12 04:13:53;;;;;;;68.03;31.30;;;;;;;20.23;100.00;1686772.12;121175;1144;104415;-74
2021/01/12 04:16:25;;;;;;;71.13;31.73;;;;;;;20.24;100.00;1686671.63;121112;1144;104346;-73
2021/01/12 04:18:57;;;;;;;68.40;29.03;;;;;;;20.24;100.00;1686693.75;121149;1144;104448;-73
2021/01/12 04:21:26;;;;;;;68.10;30.27;;;;;;;20.24;100.00;1686737.25;121127;1144;104348;-73
2021/01/12 04:23:55;;;;;;;65.43;28.50;;;;;;;20.23;100.00;1686751.87;121036;1144;104348;-73
2021/01/12 04:26:23;;;;;;;68.15;30.60;;;;;;;20.23;100.00;1686767.87;121079;1144;104359;-73
2021/01/12 04:28:52;;;;;;;64.00;29.23;;;;;;;20.22;100.00;1686915.12;121175;1144;104483;-74
2021/01/12 04:31:25;;;;;;;72.23;31.83;;;;;;;20.21;100.00;1686963.25;121118;1144;104445;-74
2021/01/12 04:33:54;;;;;;;64.67;31.37;;;;;;;20.22;100.00;1686973.62;121104;1144;104452;-74
2021/01/12 04:36:23;;;;;;;61.33;27.33;;;;;;;20.22;100.00;1686970.37;121123;1144;104361;-73
2021/01/12 04:38:52;;;;;;;63.60;27.77;;;;;;;20.23;100.00;1686770.25;121055;1144;104362;-75
2021/01/12 04:41:22;;;;;;;61.23;26.13;;;;;;;20.23;100.00;1686851.87;121045;1144;104448;-75
2021/01/12 04:43:51;;;;;;;73.83;30.07;;;;;;;20.22;100.00;1687028.37;121186;1144;104374;-74
2021/01/12 04:46:20;;;;;;;61.23;27.50;;;;;;;20.21;100.00;1687018.87;121200;1144;104410;-74
2021/01/12 04:48:50;;;;;;;68.80;29.07;;;;;;;20.21;100.00;1687046.25;121068;1144;104380;-74
2021/01/12 04:51:20;;;;;;;61.07;26.43;;;;;;;20.21;100.00;1687171.37;121131;1144;104383;-74
2021/01/12 04:53:49;;;;;;;60.37;25.40;;;;;;;20.21;100.00;1687064.75;121082;1144;104348;-72
2021/01/12 04:56:19;;;;;;;53.73;22.63;;;;;;;20.21;100.00;1687037.37;121117;1144;104477;-75
2021/01/12 04:58:53;;;;;;;60.77;26.60;;;;;;;20.20;100.00;1686963.62;121096;1144;104597;-72
2021/01/12 05:01:24;;;;;;;64.85;29.40;;;;;;;20.20;100.00;1687049.12;121044;1144;104393;-74
2021/01/12 05:03:54;;;;;;;75.97;32.70;;;;;;;20.20;100.00;1687084.50;121154;1144;104416;-74
2021/01/12 05:06:24;;;;;;;64.50;27.20;;;;;;;20.20;100.00;1687119.87;121203;1144;104413;-74
2021/01/12 05:08:55;;;;;;;70.33;29.97;;;;;;;20.20;100.00;1687219.00;121125;1144;104348;-73
2021/01/12 05:11:26;;;;;;;70.13;31.23;;;;;;;20.20;100.00;1687221.25;121084;1144;104344;-74
2021/01/12 05:14:00;;;;;;;69.40;30.40;;;;;;;20.20;100.00;1687047.25;121072;1144;104436;-73
2021/01/12 05:16:29;;;;;;;65.97;28.20;;;;;;;20.21;100.00;1686934.87;121024;1144;104348;-73
2021/01/12 05:19:01;;;;;;;64.13;26.17;;;;;;;20.21;100.00;1686830.63;121001;1144;104482;-75
2021/01/12 05:21:33;;;;;;;63.63;29.47;;;;;;;20.21;100.00;1686795.75;121081;1144;104492;-72
2021/01/12 05:24:04;;;;;;;69.60;31.60;;;;;;;20.22;100.00;1686721.62;121154;1144;103103;-73
2021/01/12 05:26:36;;;;;;;77.70;32.37;;;;;;;20.22;100.00;1686633.87;121050;1144;104505;-72
2021/01/12 05:29:07;;;;;;;69.17;28.07;;;;;;;20.22;100.00;1686668.37;120944;1148;104372;-73
2021/01/12 05:31:37;;;;;;;66.73;27.90;;;;;;;20.22;100.00;1686445.12;121026;1144;104351;-72
2021/01/12 05:34:08;;;;;;;68.53;31.03;;;;;;;20.21;100.00;1686457.75;121084;1144;104351;-73
2021/01/12 05:36:48;;;;;;;71.90;31.63;;;;;;;20.21;100.00;1686432.25;120954;1144;104370;-72
2021/01/12 05:39:20;;;;;;;68.13;27.30;;;;;;;20.20;100.00;1686501.62;121012;1144;104351;-74
2021/01/12 05:41:54;;;;;;;59.67;27.10;;;;;;;20.20;100.00;1686402.12;120900;1144;104358;-73
2021/01/12 05:44:25;;;;;;;55.83;22.87;;;;;;;20.20;100.00;1686479.00;120932;1144;104360;-73
2021/01/12 05:46:54;;;;;;;68.70;30.35;;;;;;;20.21;100.00;1686407.37;120916;1144;104412;-74
2021/01/12 05:49:25;;;;;;;72.80;30.97;;;;;;;20.20;100.00;1686316.62;120918;1144;104351;-73
2021/01/12 05:51:55;;;;;;;63.27;28.43;;;;;;;20.20;100.00;1686301.12;120873;1144;104498;-74
2021/01/12 05:54:36;;;;;;;66.90;31.87;;;;;;;20.20;100.00;1686154.37;121098;1144;104812;-74
2021/01/12 05:57:07;;;;;;;60.20;27.17;;;;;;;20.20;100.00;1685979.25;120887;1144;104476;-74
2021/01/12 05:59:38;;;;;;;64.37;27.30;;;;;;;20.20;100.00;1686022.25;120864;1144;104396;-74
2021/01/12 06:02:10;;;;;;;66.43;30.97;;;;;;;20.20;100.00;1686120.87;120906;1144;104361;-75
2021/01/12 06:04:44;;;;;;;73.53;31.73;;;;;;;20.21;100.00;1685925.00;120721;1144;104910;-75
2021/01/12 06:07:16;;;;;;;67.10;30.90;;;;;;;20.21;100.00;1685844.87;120893;1144;104393;-74
2021/01/12 06:09:46;;;;;;;67.87;30.97;;;;;;;20.21;100.00;1685907.62;121083;1144;104452;-74
2021/01/12 06:12:16;;;;;;;66.60;29.33;;;;;;;20.21;100.00;1685767.88;120942;1144;104436;-78
2021/01/12 06:14:52;;;;;;;64.17;28.73;;;;;;;20.21;100.00;1685558.00;120864;1144;104503;-76
2021/01/12 06:17:32;;;;;;;72.23;31.67;;;;;;;20.21;100.00;1685641.50;120693;1144;104383;-75
2021/01/12 06:20:15;;;;;;;69.70;30.27;;;;;;;20.21;100.00;1685784.00;120745;1144;104375;-75
2021/01/12 06:22:56;;;;;;;68.10;29.93;;;;;;;20.21;100.00;1685902.87;120733;1144;104358;-73
2021/01/12 06:25:26;;;;;;;71.03;31.70;;;;;;;20.22;100.00;1685905.75;120890;1144;104340;-76
2021/01/12 06:27:55;;;;;;;72.07;32.47;;;;;;;20.23;100.00;1685783.12;120777;1144;104462;-74
2021/01/12 06:30:25;;;;;;;59.50;25.33;;;;;;;20.24;100.00;1685702.37;120697;1144;104444;-76
2021/01/12 06:32:57;;;;;;;69.87;30.63;;;;;;;20.25;100.00;1685659.00;120996;1144;104474;-75
2021/01/12 06:35:27;;;;;;;66.73;29.13;;;;;;;20.25;100.00;1685611.25;120851;1144;104354;-76
2021/01/12 06:37:59;;;;;;;72.17;31.47;;;;;;;20.25;100.00;1685532.00;120841;1144;104377;-78
2021/01/12 06:40:30;;;;;;;70.87;31.30;;;;;;;20.25;100.00;1685385.75;120862;1144;104364;-76
2021/01/12 06:43:01;;;;;;;66.03;28.60;;;;;;;20.26;100.00;1685169.12;120781;1144;104413;-77
2021/01/12 06:45:36;;;;;;;71.57;30.17;;;;;;;20.25;100.00;1685307.00;121691;1147;104410;-75
2021/01/12 06:48:18;;;;;;;66.53;29.03;;;;;;;20.25;100.00;1685061.12;120375;1148;104579;-78
2021/01/12 06:50:58;;;;;;;67.10;29.70;;;;;;;20.26;100.00;1684890.37;120942;1148;104461;-79
2021/01/12 06:53:33;;;;;;;64.23;29.17;;;;;;;20.27;100.00;1684743.50;120493;1147;104505;-78
2021/01/12 06:56:11;;;;;;;72.50;31.17;;;;;;;20.28;100.00;1684360.75;121291;1146;104409;-77
2021/01/12 06:58:47;;;;;;;71.40;31.90;;;;;;;20.29;100.00;1684220.62;120815;1147;104464;-78
2021/01/12 07:01:22;;;;;;;62.70;26.93;;;;;;;20.30;100.00;1684202.62;120923;1148;104406;-78
2021/01/12 07:03:52;;;;;;;67.50;31.47;;;;;;;20.30;100.00;1684124.25;121012;1147;104474;-77
2021/01/12 07:06:36;;;;;;;68.90;32.33;;;;;;;20.31;100.00;1684091.62;120890;1147;104587;-80
2021/01/12 07:09:06;;;;;;;68.47;31.33;;;;;;;20.32;100.00;1684025.37;121564;1147;104419;-76
2021/01/12 07:11:35;;;;;;;67.33;30.20;;;;;;;20.33;100.00;1683887.50;120837;1148;104409;-79
2021/01/12 07:14:04;;;;;;;67.17;30.70;;;;;;;20.33;100.00;1683727.62;120640;1147;104555;-78
2021/01/12 07:16:36;;;;;;;67.83;29.10;;;;;;;20.32;100.00;1683873.37;120744;1144;104383;-77
2021/01/12 07:19:19;;;;;;;63.17;27.70;;;;;;;20.32;100.00;1683804.62;120873;1144;104386;-78
2021/01/12 07:21:49;;;;;;;65.67;29.20;;;;;;;20.31;100.00;1683893.50;120885;1144;104372;-79
2021/01/12 07:24:26;;;;;;;57.40;25.35;;;;;;;20.30;100.00;1684027.50;120803;1144;104802;-77
2021/01/12 07:26:55;;;;;;;60.40;27.03;;;;;;;20.31;100.00;1683812.37;120829;1144;104361;-82
2021/01/12 07:29:27;;;;;;;67.97;31.20;;;;;;;20.31;100.00;1683977.75;120847;1144;104309;-79
2021/01/12 07:32:04;;;;;;;67.10;31.93;;;;;;;20.32;100.00;1683933.25;120921;1144;104550;-81
2021/01/12 07:34:38;;;;;;;64.70;28.77;;;;;;;20.33;100.00;1683461.37;120888;1144;104559;-78
2021/01/12 07:37:14;;;;;;;59.53;25.60;;;;;;;20.35;100.00;1683451.62;120974;1144;104348;-80
2021/01/12 07:39:43;;;;;;;65.40;30.47;;;;;;;20.36;100.00;1683347.25;120992;1144;104428;-78
2021/01/12 07:42:12;;;;;;;64.17;29.43;;;;;;;20.36;100.00;1683371.62;120953;1144;104848;-77
2021/01/12 07:44:42;;;;;;;65.37;29.53;;;;;;;20.37;100.00;1683315.75;120987;1144;104570;-77
2021/01/12 07:47:11;;;;;;;63.17;28.53;;;;;;;20.37;100.00;1683300.75;120954;1144;104432;-76
2021/01/12 07:49:41;;;;;;;61.07;27.63;;;;;;;20.37;100.00;1683263.50;120928;1144;104427;-77
2021/01/12 07:52:10;;;;;;;66.70;29.80;;;;;;;20.37;100.00;1683151.62;120904;1144;104473;-77
2021/01/12 07:54:42;;;;;;;64.70;28.90;;;;;;;20.38;100.00;1683077.37;120747;1144;104374;-77
2021/01/12 07:57:13;;;;;;;61.00;27.40;;;;;;;20.38;100.00;1683001.25;120812;1147;104441;-76
2021/01/12 07:59:43;;;;;;;62.80;29.23;;;;;;;20.39;100.00;1682761.00;120791;1144;104479;-78
2021/01/12 08:02:14;;;;;;;62.20;28.63;;;;;;;20.39;100.00;1682839.25;120871;1144;104362;-78
2021/01/12 08:04:43;;;;;;;61.90;28.20;;;;;;;20.40;100.00;1682724.00;120832;1144;104849;-73
2021/01/12 08:07:22;;;;;;;58.80;28.77;;;;;;;20.40;100.00;1682506.75;120884;1144;104513;-76
2021/01/12 08:09:59;;;;;;;56.37;25.90;;;;;;;20.40;100.00;1682362.00;120857;1144;104388;-78
2021/01/12 08:12:31;;;;;;;60.97;29.00;;;;;;;20.41;100.00;1682207.12;122578;1144;102047;-79
2021/01/12 08:15:14;;;;;;;66.47;30.73;;;;;;;20.41;100.00;1682100.00;120808;1144;104387;-78
2021/01/12 08:17:53;;;;;;;58.17;25.17;;;;;;;20.42;100.00;1681885.25;120805;1144;104386;-78
2021/01/12 08:20:25;;;;;;;60.87;28.40;;;;;;;20.43;100.00;1681513.87;120841;1144;104366;-77
2021/01/12 08:22:55;;;;;;;61.40;27.67;;;;;;;20.45;100.00;1681325.37;120907;1144;104818;-79
2021/01/12 08:25:25;;;;;;;66.23;28.90;;;;;;;20.48;100.00;1680902.75;120707;1144;104415;-78
2021/01/12 08:27:56;;;;;;;64.73;30.10;;;;;;;20.50;100.00;1680599.25;121646;1143;104505;-75
2021/01/12 08:30:27;;;;;;;59.03;27.67;;;;;;;20.52;100.00;1680130.12;120881;1144;104375;-76
2021/01/12 08:33:01;;;;;;;61.23;27.73;;;;;;;20.52;100.00;1679979.50;122452;1144;102162;-79
2021/01/12 08:35:32;;;;;;;;;;;;;;;20.53;100.00;1679931.25;120845;1144;104540;-76
2021/01/12 08:38:10;;;;;;;63.73;30.60;;;;;;;20.54;100.00;1679660.00;121010;1144;104473;-76
2021/01/12 08:40:49;;;;;;;61.90;29.90;;;;;;;20.55;100.00;1679263.62;120761;1144;104442;-77
2021/01/12 08:43:21;;;;;;;59.33;26.60;;;;;;;20.57;100.00;1678932.37;120869;1144;104410;-78
2021/01/12 08:46:06;;;;;;;68.67;30.83;;;;;;;20.58;100.00;1678994.62;120724;1148;104394;-79
2021/01/12 08:48:56;;;;;;;58.80;29.60;;;;;;;20.58;100.00;1678703.00;120742;1144;104453;-77
2021/01/12 08:51:28;;;;;;;61.63;26.63;;;;;;;20.58;100.00;1678571.25;120902;1144;104376;-76
2021/01/12 08:53:59;;;;;;;56.43;24.87;;;;;;;20.56;100.00;1678906.87;120909;1144;104428;-76
2021/01/12 08:56:28;;;;;;;60.30;27.10;;;;;;;20.55;100.00;1678950.87;120754;1144;104864;-78
2021/01/12 08:59:09;;;;;;;64.50;28.70;;;;;;;20.55;100.00;1678806.50;120747;1144;104351;-75
2021/01/12 09:01:42;;;;;;;58.37;27.93;;;;;;;20.56;100.00;1678672.25;120858;1144;104313;-77
2021/01/12 09:04:15;;;;;;;64.60;30.33;;;;;;;20.57;100.00;1678562.62;121053;1144;104387;-74
2021/01/12 09:06:46;;;;;;;66.17;30.87;;;;;;;20.58;100.00;1678399.50;121104;1143;104372;-73
2021/01/12 09:09:22;;;;;;;66.03;30.23;;;;;;;20.58;100.00;1678295.25;121111;1145;104348;-76
2021/01/12 09:11:58;;;;;;;57.03;27.47;;;;;;;20.59;100.00;1678160.00;121074;1144;104592;-78
2021/01/12 09:14:32;;;;;;;61.97;29.43;;;;;;;20.59;100.00;1678200.00;121143;1144;105290;-76
2021/01/12 09:17:18;;;;;;;59.37;28.00;;;;;;;20.59;100.00;1678000.25;120995;1145;104392;-76
2021/01/12 09:19:52;;;;;;;62.30;29.67;;;;;;;20.60;100.00;1677842.37;120994;1143;104385;-75
2021/01/12 09:22:22;;;;;;;60.20;28.50;;;;;;;20.59;100.00;1678029.25;121016;1144;104473;-75
2021/01/12 09:24:54;;;;;;;63.67;29.10;;;;;;;20.58;100.00;1678229.12;121038;1145;104375;-76
2021/01/12 09:27:24;;;;;;;60.00;29.33;;;;;;;20.57;100.00;1678359.50;120990;1143;104394;-76
2021/01/12 09:29:54;;;;;;;58.47;26.90;;;;;;;20.57;100.00;1678291.00;121055;1145;104473;-75
2021/01/12 09:32:30;;;;;;;60.90;28.97;;;;;;;20.57;100.00;1678240.25;121077;1144;104374;-76
2021/01/12 09:35:03;;;;;;;61.10;29.05;;;;;;;20.57;100.00;1678463.75;121748;1143;102021;-74
2021/01/12 09:37:34;;;;;;;62.25;29.55;;;;;;;20.57;100.00;1678565.12;120998;1144;104367;-77
2021/01/12 09:40:07;;;;;;;61.03;29.43;;;;;;;20.57;100.00;1678633.12;120942;1144;104389;-77
2021/01/12 09:42:45;;;;;;;59.90;28.27;;;;;;;20.57;100.00;1678272.62;121244;1143;104349;-77
2021/01/12 09:45:28;;;;;;;64.17;29.97;;;;;;;20.58;100.00;1678187.12;121084;1143;104346;-76
2021/01/12 09:47:57;;;;;;;56.73;23.63;;;;;;;20.57;100.00;1678069.87;120996;1144;104342;-77
2021/01/12 09:50:27;;;;;;;60.00;27.27;;;;;;;20.57;100.00;1678022.62;121088;1143;104399;-78
2021/01/12 09:52:56;;;;;;;47.50;20.70;;;;;;;20.56;100.00;1677995.62;121056;1143;104473;-76
2021/01/12 09:55:25;;;;;;;62.13;27.77;;;;;;;20.56;100.00;1678000.00;120975;1145;104451;-75
2021/01/12 09:57:54;;;;;;;59.07;27.07;;;;;;;20.56;100.00;1677898.62;121069;1143;104844;-73
2021/01/12 10:00:24;;;;;;;56.80;27.53;;;;;;;20.56;100.00;1677821.00;121056;1145;104460;-80
2021/01/12 10:03:02;;;;;;;57.43;26.40;;;;;;;20.56;100.00;1677793.00;120964;1145;104452;-76
2021/01/12 10:08:56;;;;;;;59.17;27.73;;;;;;;20.58;100.00;1677456.50;120993;1143;104348;-75
2021/01/12 10:11:28;;;;;;;66.57;31.07;;;;;;;20.59;100.00;1677313.50;121060;1144;104508;-77
2021/01/12 10:13:58;;;;;;;61.13;28.23;;;;;;;20.59;100.00;1677245.50;122689;1143;101778;-75
2021/01/12 10:16:27;;;;;;;52.77;24.17;;;;;;;20.59;100.00;1677200.62;120993;1144;104358;-76
2021/01/12 10:18:57;;;;;;;57.05;28.10;;;;;;;20.59;100.00;1677015.75;121091;1144;104416;-75
2021/01/12 10:21:26;;;;;;;54.10;26.23;;;;;;;20.59;100.00;1677167.87;121041;1143;104426;-76
2021/01/12 10:24:00;;;;;;;58.37;28.83;;;;;;;20.58;100.00;1676987.37;121066;1143;104348;-78
2021/01/12 10:26:30;;;;;;;58.23;29.27;;;;;;;20.59;100.00;1677025.00;121161;1144;104352;-77
2021/01/12 10:29:00;;;;;;;65.30;29.27;;;;;;;20.60;100.00;1676855.00;121198;1144;104355;-76
2021/01/12 10:31:32;;;;;;;63.13;27.70;;;;;;;20.61;100.00;1676517.12;121116;1143;104370;-76
2021/01/12 10:34:01;;;;;;;59.47;26.40;;;;;;;20.62;100.00;1676262.75;121208;1143;104632;-79
2021/01/12 10:36:37;;;;;;;51.07;23.23;;;;;;;20.63;100.00;1675992.87;121170;1144;104381;-79
2021/01/12 10:39:06;;;;;;;59.57;28.67;;;;;;;20.62;100.00;1675965.87;121111;1144;104382;-78
2021/01/12 10:41:40;;;;;;;56.30;27.33;;;;;;;20.61;100.00;1676187.62;121016;1145;104395;-78
2021/01/12 10:44:09;;;;;;;;;;;;;;;20.59;100.00;1676153.00;121246;1144;104370;-76
2021/01/12 10:46:38;;;;;;;63.97;27.50;;;;;;;20.59;100.00;1676191.75;121031;1144;104444;-77
2021/01/12 10:49:10;;;;;;;56.40;27.37;;;;;;;20.57;100.00;1676428.25;121075;1143;104476;-79
2021/01/12 10:51:39;;;;;;;61.17;27.40;;;;;;;20.57;100.00;1676249.25;121077;1145;104415;-77
2021/01/12 10:54:08;;;;;;;59.73;30.43;;;;;;;20.58;100.00;1675777.25;121017;1144;104364;-81
2021/01/12 10:56:39;;;;;;;60.37;29.53;;;;;;;20.59;100.00;1675512.37;120939;1144;104495;-78
2021/01/12 10:59:11;;;;;;;62.67;30.43;;;;;;;20.61;100.00;1675152.25;120861;1144;104564;-76
2021/01/12 11:01:42;;;;;;;58.40;28.60;;;;;;;20.62;100.00;1674846.62;120902;1143;104368;-80
2021/01/12 11:04:14;;;;;;;51.40;23.80;;;;;;;20.64;100.00;1674445.50;120750;1145;104535;-79